Map

Track Data

SID SEASON NUMBER BASIN SUBBASIN NAME ISO_TIME NATURE LAT LON WMO_WIND WMO_PRES WMO_AGENCY TRACK_TYPE DIST2LAND LANDFALL IFLAG USA_AGENCY USA_ATCF_ID USA_LAT USA_LON USA_RECORD USA_STATUS USA_WIND USA_PRES USA_SSHS USA_R34_NE USA_R34_SE USA_R34_SW USA_R34_NW USA_R50_NE USA_R50_SE USA_R50_SW USA_R50_NW USA_R64_NE USA_R64_SE USA_R64_SW USA_R64_NW USA_POCI USA_ROCI USA_RMW USA_EYE TOKYO_LAT TOKYO_LON TOKYO_GRADE TOKYO_WIND TOKYO_PRES TOKYO_R50_DIR TOKYO_R50_LONG TOKYO_R50_SHORT TOKYO_R30_DIR TOKYO_R30_LONG TOKYO_R30_SHORT TOKYO_LAND CMA_LAT CMA_LON CMA_CAT CMA_WIND CMA_PRES HKO_LAT HKO_LON HKO_CAT HKO_WIND HKO_PRES NEWDELHI_LAT NEWDELHI_LON NEWDELHI_GRADE NEWDELHI_WIND NEWDELHI_PRES NEWDELHI_CI NEWDELHI_DP NEWDELHI_POCI REUNION_LAT REUNION_LON REUNION_TYPE REUNION_WIND REUNION_PRES REUNION_TNUM REUNION_CI REUNION_RMW REUNION_R34_NE REUNION_R34_SE REUNION_R34_SW REUNION_R34_NW REUNION_R50_NE REUNION_R50_SE REUNION_R50_SW REUNION_R50_NW REUNION_R64_NE REUNION_R64_SE REUNION_R64_SW REUNION_R64_NW BOM_LAT BOM_LON BOM_TYPE BOM_WIND BOM_PRES BOM_TNUM BOM_CI BOM_RMW BOM_R34_NE BOM_R34_SE BOM_R34_SW BOM_R34_NW BOM_R50_NE BOM_R50_SE BOM_R50_SW BOM_R50_NW BOM_R64_NE BOM_R64_SE BOM_R64_SW BOM_R64_NW BOM_ROCI BOM_POCI BOM_EYE BOM_POS_METHOD BOM_PRES_METHOD NADI_LAT NADI_LON NADI_CAT NADI_WIND NADI_PRES WELLINGTON_LAT WELLINGTON_LON WELLINGTON_WIND WELLINGTON_PRES DS824_LAT DS824_LON DS824_STAGE DS824_WIND DS824_PRES TD9636_LAT TD9636_LON TD9636_STAGE TD9636_WIND TD9636_PRES TD9635_LAT TD9635_LON TD9635_WIND TD9635_PRES TD9635_ROCI NEUMANN_LAT NEUMANN_LON NEUMANN_CLASS NEUMANN_WIND NEUMANN_PRES MLC_LAT MLC_LON MLC_CLASS MLC_WIND MLC_PRES USA_GUST BOM_GUST BOM_GUST_PER REUNION_GUST REUNION_GUST_PER USA_SEAHGT USA_SEARAD_NE USA_SEARAD_SE USA_SEARAD_SW USA_SEARAD_NW STORM_SPEED STORM_DIR
1940194N12156 1940 33 WP MM NOT_NAMED 1940-07-12 09:00:00 NR 11.5000 156.300 main 1699 1699 __________O___ -1 11.5000 156.300 4 5 22
1940194N12156 1940 33 WP MM NOT_NAMED 1940-07-12 12:00:00 NR 11.7236 156.390 main 1724 1724 __________P___ -1 11.7236 156.390 4 4 9
1940194N12156 1940 33 WP MM NOT_NAMED 1940-07-12 15:00:00 NR 11.9278 156.365 main 1745 1745 __________P___ -1 11.9278 156.365 4 5 323
1940194N12156 1940 33 WP MM NOT_NAMED 1940-07-12 18:00:00 NR 12.0933 156.107 main 1755 1745 __________P___ -1 12.0933 156.107 4 9 288
1940194N12156 1940 33 WP MM NOT_NAMED 1940-07-12 21:00:00 NR 12.2000 155.500 main 1745 1716 __________O___ -1 12.2000 155.500 4 16 275
1940194N12156 1940 33 WP MM NOT_NAMED 1940-07-13 00:00:00 NR 12.2335 154.480 main 1716 1690 __________P___ -1 12.2335 154.480 4 23 270
1940194N12156 1940 33 WP MM NOT_NAMED 1940-07-13 03:00:00 NR 12.2099 153.191 main 1688 1673 __________P___ -1 12.2099 153.191 4 26 268
1940194N12156 1940 33 WP MM NOT_NAMED 1940-07-13 06:00:00 NR 12.1554 151.832 main 1672 1632 __________P___ -1 12.1554 151.832 4 25 268
1940194N12156 1940 33 WP MM NOT_NAMED 1940-07-13 09:00:00 NR 12.1000 150.600 main 1629 1601 __________O___ -1 12.1000 150.600 4 20 266
1940194N12156 1940 33 WP MM NOT_NAMED 1940-07-13 12:00:00 NR 12.0324 149.795 main 1601 1592 __________P___ -1 12.0324 149.795 4 14 265
1940194N12156 1940 33 WP MM NOT_NAMED 1940-07-13 15:00:00 NR 11.9830 149.136 main 1590 1585 __________P___ -1 11.9830 149.136 4 12 268
1940194N12156 1940 33 WP MM NOT_NAMED 1940-07-13 18:00:00 NR 11.9923 148.535 main 1584 1582 __________P___ -1 11.9923 148.535 4 12 276
1940194N12156 1940 33 WP MM NOT_NAMED 1940-07-13 21:00:00 NR 12.1000 147.900 main 1591 1591 __________O___ -1 12.1000 147.900 4 15 282
1940194N12156 1940 33 WP MM NOT_NAMED 1940-07-14 00:00:00 NR 12.2939 147.024 main 1613 1613 __________P___ -1 12.2939 147.024 4 18 286
1940194N12156 1940 33 WP MM NOT_NAMED 1940-07-14 03:00:00 NR 12.5922 146.111 main 1647 1647 __________P___ -1 12.5922 146.111 4 19 292
1940194N12156 1940 33 WP MM NOT_NAMED 1940-07-14 06:00:00 NR 12.9941 145.242 main 1698 1698 __________P___ -1 12.9941 145.242 4 18 300
1940194N12156 1940 33 WP MM NOT_NAMED 1940-07-14 09:00:00 NR 13.5000 144.500 main 1763 1763 __________O___ -1 13.5000 144.500 4 17 315
1940194N12156 1940 33 WP MM NOT_NAMED 1940-07-14 12:00:00 NR 14.1991 143.985 main 1848 1848 __________P___ -1 14.1991 143.985 4 17 330
1940194N12156 1940 33 WP MM NOT_NAMED 1940-07-14 15:00:00 NR 14.9803 143.601 main 1943 1943 __________P___ -1 14.9803 143.601 4 17 336
1940194N12156 1940 33 WP MM NOT_NAMED 1940-07-14 18:00:00 NR 15.7215 143.291 main 1960 1941 __________P___ -1 15.7215 143.291 4 14 336
1940194N12156 1940 33 WP MM NOT_NAMED 1940-07-14 21:00:00 NR 16.3000 143.000 main 1941 1914 __________O___ -1 16.3000 143.000 4 10 324
1940194N12156 1940 33 WP MM NOT_NAMED 1940-07-15 00:00:00 NR 16.5622 142.662 main 1916 1877 __________P___ -1 16.5622 142.662 4 7 299
1940194N12156 1940 33 WP MM NOT_NAMED 1940-07-15 03:00:00 NR 16.6516 142.328 main 1877 1844 __________P___ -1 16.6516 142.328 4 7 277
1940194N12156 1940 33 WP MM NOT_NAMED 1940-07-15 06:00:00 NR 16.6403 141.981 main 1844 1802 __________P___ -1 16.6403 141.981 4 7 266
1940194N12156 1940 33 WP MM NOT_NAMED 1940-07-15 09:00:00 NR 16.6000 141.600 main 1802 1761 __________O___ -1 16.6000 141.600 4 8 270
1940194N12156 1940 33 WP MM NOT_NAMED 1940-07-15 12:00:00 NR 16.6395 141.153 main 1761 1712 __________P___ -1 16.6395 141.153 4 9 274
1940194N12156 1940 33 WP MM NOT_NAMED 1940-07-15 15:00:00 NR 16.6652 140.672 main 1712 1661 __________P___ -1 16.6652 140.672 4 9 273
1940194N12156 1940 33 WP MM NOT_NAMED 1940-07-15 18:00:00 NR 16.6833 140.181 main 1661 1609 __________P___ -1 16.6833 140.181 4 9 272
1940194N12156 1940 33 WP MM NOT_NAMED 1940-07-15 21:00:00 NR 16.7000 139.700 main 1609 1569 __________O___ -1 16.7000 139.700 4 8 273
1940194N12156 1940 33 WP MM NOT_NAMED 1940-07-16 00:00:00 NR 16.7277 139.313 main 1569 1538 __________P___ -1 16.7277 139.313 4 7 274
1940194N12156 1940 33 WP MM NOT_NAMED 1940-07-16 03:00:00 NR 16.7554 138.932 main 1531 1491 __________P___ -1 16.7554 138.932 4 8 274
1940194N12156 1940 33 WP MM NOT_NAMED 1940-07-16 06:00:00 NR 16.7805 138.510 main 1491 1440 __________P___ -1 16.7805 138.510 4 9 273
1940194N12156 1940 33 WP MM NOT_NAMED 1940-07-16 09:00:00 NR 16.8000 138.000 main 1440 1370 __________O___ -1 16.8000 138.000 4 12 271
1940194N12156 1940 33 WP MM NOT_NAMED 1940-07-16 12:00:00 NR 16.7965 137.302 main 1370 1301 __________P___ -1 16.7965 137.302 4 14 269
1940194N12156 1940 33 WP MM NOT_NAMED 1940-07-16 15:00:00 NR 16.7872 136.522 main 1291 1222 __________P___ -1 16.7872 136.522 4 15 270
1940194N12156 1940 33 WP MM NOT_NAMED 1940-07-16 18:00:00 NR 16.7840 135.730 main 1212 1145 __________P___ -1 16.7840 135.730 4 15 271
1940194N12156 1940 33 WP MM NOT_NAMED 1940-07-16 21:00:00 NR 16.8000 135.000 main 1145 1097 __________O___ -1 16.8000 135.000 4 12 272
1940194N12156 1940 33 WP MM NOT_NAMED 1940-07-17 00:00:00 NR 16.8271 134.460 main 1097 1055 __________P___ -1 16.8271 134.460 4 10 275
1940194N12156 1940 33 WP MM NOT_NAMED 1940-07-17 03:00:00 NR 16.8798 133.984 main 1055 1014 __________P___ -1 16.8798 133.984 4 9 279
1940194N12156 1940 33 WP MM NOT_NAMED 1940-07-17 06:00:00 NR 16.9677 133.516 main 1014 975 __________P___ -1 16.9677 133.516 4 10 283
1940194N12156 1940 33 WP MM NOT_NAMED 1940-07-17 09:00:00 NR 17.1000 133.000 main 975 936 __________O___ -1 17.1000 133.000 4 12 286
1940194N12156 1940 33 WP MM NOT_NAMED 1940-07-17 12:00:00 NR 17.2952 132.314 main 927 869 __________P___ -1 17.2952 132.314 4 14 288
1940194N12156 1940 33 WP MM NOT_NAMED 1940-07-17 15:00:00 NR 17.5292 131.579 main 869 815 __________P___ -1 17.5292 131.579 4 15 289
1940194N12156 1940 33 WP MM NOT_NAMED 1940-07-17 18:00:00 NR 17.7734 130.854 main 821 771 __________P___ -1 17.7734 130.854 4 14 290
1940194N12156 1940 33 WP MM NOT_NAMED 1940-07-17 21:00:00 NR 18.0000 130.200 main 771 736 __________O___ -1 18.0000 130.200 4 11 288
1940194N12156 1940 33 WP MM NOT_NAMED 1940-07-18 00:00:00 NR 18.1170 129.718 main 736 711 __________P___ -1 18.1170 129.718 4 9 285
1940194N12156 1940 33 WP MM NOT_NAMED 1940-07-18 03:00:00 NR 18.2227 129.309 main 711 695 __________P___ -1 18.2227 129.309 4 8 288
1940194N12156 1940 33 WP MM NOT_NAMED 1940-07-18 06:00:00 NR 18.3671 128.921 main 695 654 __________P___ -1 18.3671 128.921 4 9 296
1940194N12156 1940 33 WP MM NOT_NAMED 1940-07-18 09:00:00 NR 18.6000 128.500 main 654 593 __________O___ -1 18.6000 128.500 4 12 305
1940194N12156 1940 33 WP MM NOT_NAMED 1940-07-18 12:00:00 NR 19.0437 127.902 main 593 540 __________P___ -1 19.0437 127.902 4 15 310
1940194N12156 1940 33 WP MM NOT_NAMED 1940-07-18 15:00:00 NR 19.5669 127.272 main 542 495 __________P___ -1 19.5669 127.272 4 16 312
1940194N12156 1940 33 WP MM NOT_NAMED 1940-07-18 18:00:00 NR 20.0814 126.680 main 499 471 __________P___ -1 20.0814 126.680 4 14 313
1940194N12156 1940 33 WP MM NOT_NAMED 1940-07-18 21:00:00 NR 20.5000 126.200 main 471 456 __________O___ -1 20.5000 126.200 4 9 310
1940194N12156 1940 33 WP MM NOT_NAMED 1940-07-19 00:00:00 NR 20.6781 125.930 main 456 447 __________P___ -1 20.6781 125.930 4 5 303
1940194N12156 1940 33 WP MM NOT_NAMED 1940-07-19 03:00:00 NR 20.7585 125.777 main 454 445 __________P___ -1 20.7585 125.777 4 3 300
1940194N12156 1940 33 WP MM NOT_NAMED 1940-07-19 06:00:00 NR 20.8097 125.686 main 445 437 __________P___ -1 20.8097 125.686 4 2 310
1940194N12156 1940 33 WP MM NOT_NAMED 1940-07-19 09:00:00 NR 20.9000 125.600 main 444 443 __________O___ -1 20.9000 125.600 4 4 324
1940194N12156 1940 33 WP MM NOT_NAMED 1940-07-19 12:00:00 NR 21.1491 125.424 main 443 443 __________P___ -1 21.1491 125.424 4 6 328
1940194N12156 1940 33 WP MM NOT_NAMED 1940-07-19 15:00:00 NR 21.4426 125.243 main 434 411 __________P___ -1 21.4426 125.243 4 7 331
1940194N12156 1940 33 WP MM NOT_NAMED 1940-07-19 18:00:00 NR 21.7397 125.065 main 411 379 __________P___ -1 21.7397 125.065 4 6 330
1940194N12156 1940 33 WP MM NOT_NAMED 1940-07-19 21:00:00 NR 22.0000 124.900 main 379 366 __________O___ -1 22.0000 124.900 4 5 325
1940194N12156 1940 33 WP MM NOT_NAMED 1940-07-20 00:00:00 NR 22.1477 124.752 main 366 340 __________P___ -1 22.1477 124.752 4 4 315
1940194N12156 1940 33 WP MM NOT_NAMED 1940-07-20 03:00:00 NR 22.2574 124.619 main 340 327 __________P___ -1 22.2574 124.619 4 3 313
1940194N12156 1940 33 WP MM NOT_NAMED 1940-07-20 06:00:00 NR 22.3634 124.502 main 327 314 __________P___ -1 22.3634 124.502 4 3 320
1940194N12156 1940 33 WP MM NOT_NAMED 1940-07-20 09:00:00 NR 22.5000 124.400 main 314 300 __________O___ -1 22.5000 124.400 4 4 333
1940194N12156 1940 33 WP MM NOT_NAMED 1940-07-20 12:00:00 NR 22.7181 124.303 main 300 286 __________P___ -1 22.7181 124.303 4 5 340
1940194N12156 1940 33 WP MM NOT_NAMED 1940-07-20 15:00:00 NR 22.9700 124.220 main 286 275 __________P___ -1 22.9700 124.220 4 5 345
1940194N12156 1940 33 WP MM NOT_NAMED 1940-07-20 18:00:00 NR 23.2369 124.153 main 275 249 __________P___ -1 23.2369 124.153 4 5 348
1940194N12156 1940 33 WP MM NOT_NAMED 1940-07-20 21:00:00 NR 23.5000 124.100 main 249 240 __________O___ -1 23.5000 124.100 4 5 350
1940194N12156 1940 33 WP MM NOT_NAMED 1940-07-21 00:00:00 NR 23.6997 124.068 main 240 232 __________P___ -1 23.6997 124.068 4 4 354
1940194N12156 1940 33 WP MM NOT_NAMED 1940-07-21 03:00:00 NR 23.8975 124.049 main 223 217 __________P___ -1 23.8975 124.049 4 4 354
1940194N12156 1940 33 WP MM NOT_NAMED 1940-07-21 06:00:00 NR 24.1215 124.031 main 217 212 __________P___ -1 24.1215 124.031 4 5 356
1940194N12156 1940 33 WP MM NOT_NAMED 1940-07-21 09:00:00 NR 24.4000 124.000 main 212 192 __________O___ -1 24.4000 124.000 4 7 352
1940194N12156 1940 33 WP MM NOT_NAMED 1940-07-21 12:00:00 NR 24.7757 123.928 main 192 182 __________P___ -1 24.7757 123.928 4 8 350
1940194N12156 1940 33 WP MM NOT_NAMED 1940-07-21 15:00:00 NR 25.2051 123.843 main 182 182 __________P___ -1 25.2051 123.843 4 9 351
1940194N12156 1940 33 WP MM NOT_NAMED 1940-07-21 18:00:00 NR 25.6570 123.762 main 196 187 __________P___ -1 25.6570 123.762 4 9 352
1940194N12156 1940 33 WP MM NOT_NAMED 1940-07-21 21:00:00 NR 26.1000 123.700 main 210 210 __________O___ -1 26.1000 123.700 4 8 354
1940194N12156 1940 33 WP MM NOT_NAMED 1940-07-22 00:00:00 NR 26.4123 123.674 main 231 231 __________P___ -1 26.4123 123.674 4 6 358
1940194N12156 1940 33 WP MM NOT_NAMED 1940-07-22 03:00:00 NR 26.7227 123.670 main 254 246 __________P___ -1 26.7227 123.670 4 7 0
1940194N12156 1940 33 WP MM NOT_NAMED 1940-07-22 06:00:00 NR 27.0967 123.681 main 246 220 __________P___ -1 27.0967 123.681 4 9 1
1940194N12156 1940 33 WP MM NOT_NAMED 1940-07-22 09:00:00 NR 27.6000 123.700 main 220 193 __________O___ -1 27.6000 123.700 4 13 0
1940194N12156 1940 33 WP MM NOT_NAMED 1940-07-22 12:00:00 NR 28.3498 123.675 main 193 164 __________P___ -1 28.3498 123.675 4 16 359
1940194N12156 1940 33 WP MM NOT_NAMED 1940-07-22 15:00:00 NR 29.2248 123.663 main 164 164 __________P___ -1 29.2248 123.663 4 18 0
1940194N12156 1940 33 WP MM NOT_NAMED 1940-07-22 18:00:00 NR 30.1373 123.694 main 176 174 __________P___ -1 30.1373 123.694 4 18 4
1940194N12156 1940 33 WP MM NOT_NAMED 1940-07-22 21:00:00 NR 31.0000 123.800 main 181 181 __________O___ -1 31.0000 123.800 4 14 6
1940194N12156 1940 33 WP MM NOT_NAMED 1940-07-23 00:00:00 NR 31.5676 123.871 main 189 188 __________P___ -1 31.5676 123.871 4 11 11
1940194N12156 1940 33 WP MM NOT_NAMED 1940-07-23 03:00:00 NR 32.0922 124.040 main 202 180 __________P___ -1 32.0922 124.040 4 12 21
1940194N12156 1940 33 WP MM NOT_NAMED 1940-07-23 06:00:00 NR 32.6960 124.387 main 180 111 __________P___ -1 32.6960 124.387 4 16 30
1940194N12156 1940 33 WP MM NOT_NAMED 1940-07-23 09:00:00 NR 33.5000 125.000 main 113 27 __________O___ -1 33.5000 125.000 4 25 33
1940194N12156 1940 33 WP MM NOT_NAMED 1940-07-23 12:00:00 NR 34.8118 126.017 main 29 0 __________P___ -1 34.8118 126.017 4 34 34
1940194N12156 1940 33 WP MM NOT_NAMED 1940-07-23 15:00:00 NR 36.2949 127.331 main 0 0 __________P___ -1 36.2949 127.331 4 37 38
1940194N12156 1940 33 WP MM NOT_NAMED 1940-07-23 18:00:00 NR 37.7290 128.812 main 0 0 __________P___ -1 37.7290 128.812 4 35 42
1940194N12156 1940 33 WP MM NOT_NAMED 1940-07-23 21:00:00 NR 38.9000 130.300 main 165 165 __________O___ -1 38.9000 130.300 4 27 47
1940194N12156 1940 33 WP MM NOT_NAMED 1940-07-24 00:00:00 NR 39.5789 131.365 main 196 195 __________P___ -1 39.5789 131.365 4 19 56
1940194N12156 1940 33 WP MM NOT_NAMED 1940-07-24 03:00:00 NR 39.9835 132.394 main 244 244 __________P___ -1 39.9835 132.394 4 18 70
1940194N12156 1940 33 WP MM NOT_NAMED 1940-07-24 06:00:00 NR 40.1983 133.549 main 281 280 __________P___ -1 40.1983 133.549 4 20 81
1940194N12156 1940 33 WP MM NOT_NAMED 1940-07-24 09:00:00 NR 40.3000 135.000 main 298 235 __________O___ -1 40.3000 135.000 4 27 86
1940194N12156 1940 33 WP MM NOT_NAMED 1940-07-24 12:00:00 NR 40.3858 137.154 main 219 50 __________P___ -1 40.3858 137.154 4 35 89
1940194N12156 1940 33 WP MM NOT_NAMED 1940-07-24 15:00:00 NR 40.3450 139.578 main 33 0 __________P___ -1 40.3450 139.578 4 37 92
1940194N12156 1940 33 WP MM NOT_NAMED 1940-07-24 18:00:00 NR 40.2260 141.986 main 16 16 __________P___ -1 40.2260 141.986 4 35 94
1940194N12156 1940 33 WP MM NOT_NAMED 1940-07-24 21:00:00 NR 40.1000 144.100 main 181 181 __________O___ -1 40.1000 144.100 4 27 92
1940194N12156 1940 33 WP MM NOT_NAMED 1940-07-25 00:00:00 NR 40.1095 145.502 main 277 277 __________P___ -1 40.1095 145.502 4 19 88
1940194N12156 1940 33 WP MM NOT_NAMED 1940-07-25 03:00:00 NR 40.1563 146.611 main 335 335 __________P___ -1 40.1563 146.611 4 16 87
1940194N12156 1940 33 WP MM NOT_NAMED 1940-07-25 06:00:00 NR 40.2018 147.615 main 376 376 __________P___ -1 40.2018 147.615 4 16 88
1940194N12156 1940 33 WP MM NOT_NAMED 1940-07-25 09:00:00 NR 40.2000 148.700 main 425 425 __________O___ -1 40.2000 148.700 4 20 94
1940194N12156 1940 33 WP MM NOT_NAMED 1940-07-25 12:00:00 NR 40.0568 150.223 main 519 519 __________P___ -1 40.0568 150.223 4 24 98
1940194N12156 1940 33 WP MM NOT_NAMED 1940-07-25 15:00:00 NR 39.8498 151.829 main 644 644 __________P___ -1 39.8498 151.829 4 25 100
1940194N12156 1940 33 WP MM NOT_NAMED 1940-07-25 18:00:00 NR 39.6163 153.395 main 732 732 __________P___ -1 39.6163 153.395 4 23 101
1940194N12156 1940 33 WP MM NOT_NAMED 1940-07-25 21:00:00 NR 39.4000 154.800 main 805 805 __________O___ -1 39.4000 154.800 4 20 101
1940194N12156 1940 33 WP MM NOT_NAMED 1940-07-26 00:00:00 NR 39.2391 155.961 main 878 878 __________P___ -1 39.2391 155.961 4 17 99
1940194N12156 1940 33 WP MM NOT_NAMED 1940-07-26 03:00:00 NR 39.1303 156.919 main 932 932 __________P___ -1 39.1303 156.919 4 14 98
1940194N12156 1940 33 WP MM NOT_NAMED 1940-07-26 06:00:00 NR 39.0570 157.743 main 974 974 __________P___ -1 39.0570 157.743 4 12 96
1940194N12156 1940 33 WP MM NOT_NAMED 1940-07-26 09:00:00 NR 39.0000 158.500 main 1025 __________O___ -1 39.0000 158.500 4 12 96

Digital Typhoon Data and Search

About IBTrACS Database

This database is a web-friendly format of International Best Track Archive for Climate Stewardship (IBTrACS), a global best track data archive curated by NOAA dating back to 1842.

Updated: 2021-10-21